Time;durP1;ratioP1;P1;durP2;ratioP2;P2;SDS_P1;SDS_P2;PMS_P1;PMS_P2;Temp;Humidity;BMP_temperature;BMP_pressure;BME280_temperature;BME280_humidity;BME280_pressure;Samples;Min_cycle;Max_cycle;Signal;HPM_P1;HPM_P2
2022/06/25 00:01:58;;;;;;;8.90;7.85;;;17.40;99.90;;;;;;4980423;28;20481;-78
2022/06/25 00:07:08;;;;;;;10.23;9.07;;;17.40;99.90;;;;;;4980001;28;20053;-78
2022/06/25 00:09:33;;;;;;;11.68;9.75;;;17.40;99.90;;;;;;4980829;28;20654;-78
2022/06/25 00:14:44;;;;;;;11.73;10.38;;;17.30;99.90;;;;;;4979442;28;20065;-79
2022/06/25 00:17:09;;;;;;;11.02;9.25;;;17.30;99.90;;;;;;4979197;28;20058;-78
2022/06/25 00:19:35;;;;;;;11.27;9.68;;;17.30;99.90;;;;;;4964238;28;20039;-78
2022/06/25 00:22:00;;;;;;;11.20;9.55;;;17.20;99.90;;;;;;4979034;28;20054;-80
2022/06/25 00:24:26;;;;;;;11.60;10.27;;;17.20;99.90;;;;;;4981323;28;20038;-78
2022/06/25 00:26:52;;;;;;;10.18;9.27;;;17.20;99.90;;;;;;4979689;28;20122;-77
2022/06/25 00:29:17;;;;;;;11.93;10.50;;;17.20;99.90;;;;;;4980635;28;20178;-78
2022/06/25 00:31:43;;;;;;;10.73;9.57;;;17.20;99.90;;;;;;4981563;28;20043;-78
2022/06/25 00:34:09;;;;;;;11.90;9.52;;;17.20;99.90;;;;;;4980163;28;20481;-78
2022/06/25 00:36:34;;;;;;;13.40;10.77;;;17.20;99.90;;;;;;4980596;28;20599;-77
2022/06/25 00:39:00;;;;;;;11.95;10.85;;;17.20;99.90;;;;;;4980669;28;20572;-78
2022/06/25 00:41:25;;;;;;;13.20;10.73;;;17.20;99.90;;;;;;4979882;28;20046;-78
2022/06/25 00:43:51;;;;;;;12.90;10.70;;;17.10;99.90;;;;;;4980651;28;20121;-78
2022/06/25 00:46:17;;;;;;;10.18;9.20;;;17.10;99.90;;;;;;4981128;28;20049;-78
2022/06/25 00:48:43;;;;;;;10.85;9.27;;;17.10;99.90;;;;;;4981141;28;20042;-77
2022/06/25 00:51:11;;;;;;;10.60;8.07;;;17.10;99.90;;;;;;4980455;28;20069;-78
2022/06/25 00:53:41;;;;;;;12.25;9.45;;;17.10;99.90;;;;;;4979930;28;20046;-78
2022/06/25 00:56:08;;;;;;;10.57;8.68;;;17.00;99.90;;;;;;4984742;28;20038;-78
2022/06/25 00:58:38;;;;;;;11.88;9.82;;;17.00;99.90;;;;;;4984616;28;20127;-78
2022/06/25 01:01:05;;;;;;;12.90;9.38;;;17.00;99.90;;;;;;4983818;28;20076;-78
2022/06/25 01:03:31;;;;;;;11.82;9.98;;;17.00;99.90;;;;;;5000473;28;20050;-77
2022/06/25 01:05:57;;;;;;;13.93;10.38;;;16.90;99.90;;;;;;4995206;23;20064;-79
2022/06/25 01:08:23;;;;;;;12.63;10.88;;;17.00;99.90;;;;;;5000524;28;20061;-77
2022/06/25 01:10:49;;;;;;;13.27;9.27;;;17.00;99.90;;;;;;5004534;28;20046;-77
2022/06/25 01:13:14;;;;;;;17.58;11.27;;;17.00;99.90;;;;;;5004169;28;20042;-78
2022/06/25 01:15:40;;;;;;;10.90;9.55;;;16.90;99.90;;;;;;5004964;28;20121;-77
2022/06/25 01:18:07;;;;;;;21.95;11.45;;;16.90;99.90;;;;;;5003880;28;20053;-77
2022/06/25 01:20:34;;;;;;;14.45;10.32;;;17.00;99.90;;;;;;5002922;28;20115;-78
2022/06/25 01:22:59;;;;;;;12.30;10.98;;;17.00;99.90;;;;;;5002427;28;20138;-77
2022/06/25 01:25:32;;;;;;;14.27;11.32;;;16.90;99.90;;;;;;5004496;28;20464;-78
2022/06/25 01:27:57;;;;;;;13.77;10.85;;;17.00;99.90;;;;;;5001445;28;20046;-77
2022/06/25 01:30:23;;;;;;;12.57;9.90;;;16.90;99.90;;;;;;4986786;28;20167;-77
2022/06/25 01:32:48;;;;;;;13.63;10.63;;;16.90;99.90;;;;;;5002238;28;20057;-78
2022/06/25 01:35:14;;;;;;;12.70;10.25;;;16.80;99.90;;;;;;5003851;28;20038;-79
2022/06/25 01:37:40;;;;;;;12.05;10.20;;;16.80;99.90;;;;;;5002492;28;20107;-78
2022/06/25 01:40:06;;;;;;;12.50;11.13;;;16.80;99.90;;;;;;5003426;28;20327;-77
2022/06/25 01:45:16;;;;;;;14.18;11.68;;;16.80;99.90;;;;;;5004068;28;20153;-78
2022/06/25 01:47:42;;;;;;;11.52;10.45;;;16.80;99.90;;;;;;5003855;28;20144;-77
2022/06/25 01:50:09;;;;;;;13.63;11.55;;;16.70;99.90;;;;;;5002021;28;20508;-78
2022/06/25 01:52:35;;;;;;;14.25;12.15;;;16.70;99.90;;;;;;5002521;28;20073;-78
2022/06/25 01:55:01;;;;;;;20.50;12.38;;;16.70;99.90;;;;;;5003901;28;20064;-78
2022/06/25 01:57:26;;;;;;;16.08;12.73;;;16.80;99.90;;;;;;5003837;28;20042;-78
2022/06/25 01:59:52;;;;;;;13.98;10.65;;;16.80;99.90;;;;;;5002977;28;20049;-78
2022/06/25 02:02:18;;;;;;;19.65;14.13;;;16.70;99.90;;;;;;5004029;28;20044;-78
2022/06/25 02:04:43;;;;;;;13.65;11.88;;;16.70;99.90;;;;;;5002488;28;20407;-81
2022/06/25 02:07:09;;;;;;;13.65;11.18;;;16.70;99.90;;;;;;4984244;28;20057;-77
2022/06/25 02:09:35;;;;;;;13.27;11.82;;;16.70;99.90;;;;;;5002223;28;20576;-78
2022/06/25 02:12:00;;;;;;;22.33;12.45;;;16.70;99.90;;;;;;4995625;28;20129;-78
2022/06/25 02:14:26;;;;;;;14.68;12.68;;;16.70;99.90;;;;;;4999589;28;20119;-78
2022/06/25 02:16:53;;;;;;;15.23;12.48;;;16.70;99.90;;;;;;5002542;28;20118;-78
2022/06/25 02:19:18;;;;;;;18.52;12.13;;;16.70;99.90;;;;;;5003052;28;20158;-77
2022/06/25 02:21:44;;;;;;;14.13;12.15;;;16.60;99.90;;;;;;5002053;28;20030;-79
2022/06/25 02:24:10;;;;;;;15.02;12.48;;;16.70;99.90;;;;;;5002360;28;20046;-78
2022/06/25 02:26:36;;;;;;;14.85;11.52;;;16.70;99.90;;;;;;5001520;28;20393;-77
2022/06/25 02:29:02;;;;;;;15.35;13.48;;;16.60;99.90;;;;;;5002953;28;20060;-77
2022/06/25 02:31:28;;;;;;;16.50;13.68;;;16.60;99.90;;;;;;4985480;28;20038;-78
2022/06/25 02:33:54;;;;;;;19.42;14.18;;;16.60;99.90;;;;;;5000853;28;20492;-78
2022/06/25 02:36:19;;;;;;;14.80;13.25;;;16.60;99.90;;;;;;5001215;28;20068;-78
2022/06/25 02:38:45;;;;;;;13.00;11.65;;;16.60;99.90;;;;;;5001639;28;20744;-78
2022/06/25 02:41:11;;;;;;;18.42;12.30;;;16.60;99.90;;;;;;5002141;28;20041;-77
2022/06/25 02:43:37;;;;;;;13.63;12.32;;;16.60;99.90;;;;;;4985307;28;20050;-78
2022/06/25 02:46:02;;;;;;;18.27;14.30;;;16.60;99.90;;;;;;5002145;28;20038;-78
2022/06/25 02:48:28;;;;;;;17.02;12.88;;;16.60;99.90;;;;;;5001171;28;20444;-78
2022/06/25 02:50:54;;;;;;;16.58;12.82;;;16.60;99.90;;;;;;5002492;28;20737;-77
2022/06/25 02:53:19;;;;;;;17.98;11.50;;;16.60;99.90;;;;;;5001756;28;20100;-78
2022/06/25 03:01:13;;;;;;;15.90;11.95;;;16.50;99.90;;;;;;5002949;28;20051;-79
2022/06/25 03:03:39;;;;;;;15.23;12.77;;;16.60;99.90;;;;;;5002624;28;20483;-78
2022/06/25 03:06:05;;;;;;;15.10;11.88;;;16.50;99.90;;;;;;5000173;28;20403;-78
2022/06/25 03:08:30;;;;;;;14.13;12.70;;;16.50;99.90;;;;;;5001208;28;20049;-77
2022/06/25 03:10:56;;;;;;;14.35;11.15;;;16.50;99.90;;;;;;5002461;28;20077;-77
2022/06/25 03:13:21;;;;;;;17.75;13.55;;;16.50;99.90;;;;;;4991723;28;20078;-78
2022/06/25 03:15:47;;;;;;;14.18;12.50;;;16.50;99.90;;;;;;5000760;28;20038;-77
2022/06/25 03:18:13;;;;;;;12.35;11.00;;;16.50;99.90;;;;;;5001355;28;20045;-78
2022/06/25 03:20:38;;;;;;;15.02;12.57;;;16.40;99.90;;;;;;5001433;28;20057;-77
2022/06/25 03:23:04;;;;;;;14.15;12.65;;;16.50;99.90;;;;;;5015636;28;20042;-77
2022/06/25 03:25:30;;;;;;;15.40;11.73;;;16.50;99.90;;;;;;5002074;28;20038;-77
2022/06/25 03:27:55;;;;;;;14.65;12.30;;;16.50;99.90;;;;;;5017102;28;20499;-78
2022/06/25 03:30:21;;;;;;;15.98;12.82;;;16.50;99.90;;;;;;5001929;28;20050;-78
2022/06/25 03:32:47;;;;;;;12.55;10.82;;;16.50;99.90;;;;;;4999621;28;20076;-77
2022/06/25 03:35:13;;;;;;;14.45;11.57;;;16.40;99.90;;;;;;5000935;28;20049;-78
2022/06/25 03:37:38;;;;;;;14.05;11.18;;;16.40;99.90;;;;;;4999905;28;20544;-78
2022/06/25 03:40:04;;;;;;;11.13;10.02;;;16.40;99.90;;;;;;5001193;28;20045;-78
2022/06/25 03:42:30;;;;;;;13.02;10.27;;;16.40;99.90;;;;;;5001547;28;20069;-78
2022/06/25 03:44:55;;;;;;;12.00;9.52;;;16.50;99.90;;;;;;5000273;28;20558;-77
2022/06/25 03:47:21;;;;;;;15.20;10.35;;;16.50;99.90;;;;;;5000043;28;20041;-77
2022/06/25 03:49:47;;;;;;;12.88;10.98;;;16.50;99.90;;;;;;4999600;28;20088;-78
2022/06/25 03:52:12;;;;;;;11.57;10.35;;;16.50;99.90;;;;;;5000856;28;20050;-78
2022/06/25 03:54:38;;;;;;;15.45;10.38;;;16.50;99.90;;;;;;5000337;28;20084;-78
2022/06/25 03:57:04;;;;;;;11.10;9.68;;;16.50;99.90;;;;;;4999993;28;20050;-77
2022/06/25 03:59:30;;;;;;;11.10;9.60;;;16.60;99.90;;;;;;5000715;28;20100;-77
2022/06/25 04:01:56;;;;;;;10.80;9.70;;;16.60;99.90;;;;;;4983813;28;20041;-77
2022/06/25 04:04:21;;;;;;;12.38;9.02;;;16.60;99.90;;;;;;5000033;28;20042;-78
2022/06/25 04:06:47;;;;;;;11.73;8.35;;;16.60;99.90;;;;;;4998614;28;20060;-78
2022/06/25 04:09:12;;;;;;;12.27;10.30;;;16.60;99.90;;;;;;5001181;28;20049;-77
2022/06/25 04:11:38;;;;;;;14.05;10.10;;;16.60;99.90;;;;;;5000084;28;20040;-77
2022/06/25 04:14:04;;;;;;;10.85;9.75;;;16.60;99.90;;;;;;5000736;28;20057;-77
2022/06/25 04:16:30;;;;;;;12.27;10.02;;;16.70;99.90;;;;;;5001098;28;20070;-78
2022/06/25 04:18:56;;;;;;;11.82;9.65;;;16.70;99.90;;;;;;5000719;28;20100;-78
2022/06/25 04:21:22;;;;;;;10.77;9.38;;;16.70;99.90;;;;;;4998772;28;20500;-78
2022/06/25 04:23:47;;;;;;;11.70;10.20;;;16.70;99.90;;;;;;5001291;28;20046;-78
2022/06/25 04:26:14;;;;;;;15.38;11.07;;;16.70;99.90;;;;;;4999230;28;20569;-80
2022/06/25 04:31:23;;;;;;;10.18;9.18;;;16.80;99.90;;;;;;4999369;28;20057;-78
2022/06/25 04:33:49;;;;;;;14.07;10.55;;;16.80;99.90;;;;;;4999479;28;20045;-78
2022/06/25 04:36:14;;;;;;;11.75;10.48;;;16.80;99.90;;;;;;4982735;28;20161;-79
2022/06/25 04:38:40;;;;;;;12.35;10.52;;;16.80;99.90;;;;;;5000348;28;20506;-78
2022/06/25 04:41:06;;;;;;;15.10;9.25;;;16.80;99.90;;;;;;5000822;28;20442;-78
2022/06/25 04:43:31;;;;;;;15.95;10.35;;;16.80;99.90;;;;;;4983224;28;20129;-78
2022/06/25 04:45:57;;;;;;;13.63;9.95;;;16.90;99.90;;;;;;4999593;28;20104;-78
2022/06/25 04:48:22;;;;;;;10.15;9.15;;;16.90;99.90;;;;;;4999443;28;20030;-78
2022/06/25 04:50:48;;;;;;;12.57;10.82;;;16.90;99.90;;;;;;5000791;28;20049;-78
2022/06/25 04:53:14;;;;;;;11.55;10.50;;;16.90;99.90;;;;;;4998029;28;20160;-80
2022/06/25 04:55:39;;;;;;;12.07;10.02;;;17.00;99.90;;;;;;5000952;28;20046;-78
2022/06/25 04:58:05;;;;;;;12.10;10.18;;;17.00;99.90;;;;;;4999055;28;20132;-78
2022/06/25 05:00:30;;;;;;;14.65;9.98;;;17.00;99.90;;;;;;4999428;28;20042;-77
2022/06/25 05:02:56;;;;;;;11.95;10.68;;;17.10;99.90;;;;;;5000295;28;20042;-78
2022/06/25 05:05:21;;;;;;;14.05;10.63;;;17.10;99.90;;;;;;4999046;28;20053;-78
2022/06/25 05:07:47;;;;;;;11.93;9.85;;;17.10;99.90;;;;;;4998824;28;20270;-78
2022/06/25 05:10:13;;;;;;;13.15;10.90;;;17.10;99.90;;;;;;5001238;28;20128;-78
2022/06/25 05:15:22;;;;;;;10.52;9.02;;;17.20;99.90;;;;;;4999931;28;20673;-78
2022/06/25 05:17:48;;;;;;;10.57;9.48;;;17.20;99.90;;;;;;5000373;28;20124;-77
2022/06/25 05:20:14;;;;;;;11.48;9.20;;;17.30;99.90;;;;;;4998653;28;20081;-79
2022/06/25 05:22:39;;;;;;;11.00;9.88;;;17.30;99.90;;;;;;4998741;28;20089;-78
2022/06/25 05:25:06;;;;;;;12.30;9.93;;;17.30;99.90;;;;;;5000046;28;20045;-78
2022/06/25 05:27:31;;;;;;;10.45;9.20;;;17.40;99.90;;;;;;4999231;28;20042;-78
2022/06/25 05:29:57;;;;;;;14.77;9.77;;;17.40;99.90;;;;;;4999586;28;20026;-78
2022/06/25 05:32:23;;;;;;;10.27;8.90;;;17.50;99.90;;;;;;5000259;28;20549;-78
2022/06/25 05:34:48;;;;;;;15.02;9.45;;;17.50;99.90;;;;;;5000184;28;20153;-77
2022/06/25 05:37:15;;;;;;;10.60;9.48;;;17.50;99.90;;;;;;4998277;28;20088;-80
2022/06/25 05:39:41;;;;;;;12.68;9.73;;;17.60;99.90;;;;;;4999196;28;20042;-78
2022/06/25 05:42:06;;;;;;;12.85;9.80;;;17.70;99.90;;;;;;5001257;28;20049;-78
2022/06/25 05:44:32;;;;;;;10.85;9.27;;;17.70;99.90;;;;;;5003885;28;20057;-78
2022/06/25 05:46:58;;;;;;;11.15;8.75;;;17.80;99.90;;;;;;5003238;28;20042;-78
2022/06/25 05:49:23;;;;;;;10.15;9.00;;;17.80;99.90;;;;;;5003812;28;20721;-78
2022/06/25 05:51:49;;;;;;;11.50;10.18;;;17.80;99.90;;;;;;5002274;28;20050;-78
2022/06/25 05:54:16;;;;;;;11.38;9.18;;;17.90;99.90;;;;;;5003523;28;20045;-79
2022/06/25 05:56:41;;;;;;;11.73;9.40;;;17.90;99.90;;;;;;5003829;28;20046;-78
2022/06/25 05:59:07;;;;;;;12.60;9.43;;;18.00;99.90;;;;;;5002721;28;20034;-78
2022/06/25 06:01:33;;;;;;;10.95;9.73;;;18.00;99.90;;;;;;5001804;28;20120;-78
2022/06/25 06:03:58;;;;;;;9.90;8.75;;;18.10;99.90;;;;;;5003478;28;20050;-78
2022/06/25 06:06:24;;;;;;;11.25;9.13;;;18.20;99.90;;;;;;4999024;28;20042;-80
2022/06/25 06:08:49;;;;;;;11.15;8.55;;;18.20;99.90;;;;;;5000805;28;20070;-80
2022/06/25 06:11:15;;;;;;;14.95;8.77;;;18.30;99.90;;;;;;4991266;28;20119;-80
2022/06/25 06:13:41;;;;;;;9.80;8.07;;;18.30;99.90;;;;;;5000432;28;20045;-79
2022/06/25 06:16:07;;;;;;;9.65;7.50;;;18.40;99.90;;;;;;4997324;28;20042;-79
2022/06/25 06:18:32;;;;;;;9.07;8.18;;;18.40;99.90;;;;;;5001310;28;20663;-80
2022/06/25 06:20:58;;;;;;;9.48;8.05;;;18.50;99.90;;;;;;5001704;28;20435;-81
2022/06/25 06:23:24;;;;;;;9.77;7.43;;;18.50;99.90;;;;;;5000618;28;20396;-79
2022/06/25 06:25:49;;;;;;;7.35;6.60;;;18.60;99.90;;;;;;5001017;28;20048;-80
2022/06/25 06:28:16;;;;;;;11.68;7.55;;;18.70;99.90;;;;;;4985694;28;20053;-81
2022/06/25 06:30:42;;;;;;;8.27;7.07;;;18.80;99.90;;;;;;4983185;28;20077;-79
2022/06/25 06:33:08;;;;;;;7.13;6.43;;;18.90;99.90;;;;;;4986731;28;20104;-79
2022/06/25 06:35:33;;;;;;;8.75;6.90;;;19.00;99.90;;;;;;5002302;28;20754;-79
2022/06/25 06:37:59;;;;;;;8.25;6.90;;;19.10;99.90;;;;;;4999523;28;20056;-79
2022/06/25 06:40:25;;;;;;;7.43;6.28;;;19.10;99.90;;;;;;5000289;28;20030;-80
2022/06/25 06:42:50;;;;;;;6.13;5.50;;;19.20;99.90;;;;;;4999640;28;20058;-79
2022/06/25 06:45:16;;;;;;;7.10;6.38;;;19.30;99.90;;;;;;5001089;28;20042;-79
2022/06/25 06:47:42;;;;;;;5.68;5.10;;;19.30;99.90;;;;;;5001372;28;20068;-79
2022/06/25 06:50:10;;;;;;;7.07;5.32;;;19.30;99.90;;;;;;5001185;28;20049;-79
2022/06/25 06:52:36;;;;;;;5.53;4.88;;;19.40;99.90;;;;;;5001268;28;20042;-80
2022/06/25 06:55:04;;;;;;;6.38;5.45;;;19.40;99.90;;;;;;5016354;28;20324;-79
2022/06/25 06:57:30;;;;;;;6.07;4.35;;;19.50;99.90;;;;;;5000535;28;20045;-79
2022/06/25 06:59:58;;;;;;;9.85;5.32;;;19.50;99.90;;;;;;5000440;28;20077;-79
2022/06/25 07:02:25;;;;;;;9.73;3.70;;;19.60;99.90;;;;;;5000851;28;20050;-79
2022/06/25 07:04:52;;;;;;;3.35;3.05;;;19.70;99.90;;;;;;4977800;28;20039;-79
2022/06/25 07:07:18;;;;;;;4.35;3.35;;;19.70;99.90;;;;;;4980224;28;20125;-80
2022/06/25 07:09:43;;;;;;;7.05;3.33;;;19.80;99.90;;;;;;5015014;28;20134;-81
2022/06/25 07:12:09;;;;;;;5.10;3.22;;;19.80;99.90;;;;;;5000649;28;20784;-80
2022/06/25 07:14:34;;;;;;;8.68;3.50;;;19.80;99.90;;;;;;5002114;28;20038;-80
2022/06/25 07:17:00;;;;;;;6.03;3.20;;;19.80;99.90;;;;;;4995344;28;20519;-80
2022/06/25 07:19:25;;;;;;;5.28;3.80;;;19.90;99.90;;;;;;4998230;28;20046;-80
2022/06/25 07:21:52;;;;;;;4.65;3.22;;;19.80;99.90;;;;;;4998149;28;20034;-80
2022/06/25 07:24:18;;;;;;;3.67;3.35;;;19.80;99.90;;;;;;5001905;28;20045;-80
2022/06/25 07:26:43;;;;;;;5.03;2.92;;;19.90;99.90;;;;;;5016976;28;20567;-80
2022/06/25 07:29:09;;;;;;;6.00;2.67;;;19.80;99.90;;;;;;5016119;28;20037;-81
2022/06/25 07:31:35;;;;;;;7.22;3.38;;;19.80;99.90;;;;;;4998784;28;20050;-81
2022/06/25 07:34:00;;;;;;;2.95;2.75;;;19.90;99.90;;;;;;4999695;28;20056;-81
2022/06/25 07:36:26;;;;;;;3.35;2.72;;;19.90;99.90;;;;;;4994022;28;20117;-79
2022/06/25 07:38:52;;;;;;;4.88;3.13;;;19.90;99.90;;;;;;4979285;28;20403;-77
2022/06/25 07:41:18;;;;;;;2.58;2.22;;;20.00;99.90;;;;;;4983570;28;20042;-78
2022/06/25 07:43:43;;;;;;;3.13;2.40;;;20.00;99.90;;;;;;4991520;28;20072;-82
2022/06/25 07:46:09;;;;;;;4.32;2.35;;;20.00;99.90;;;;;;4998227;28;20042;-79
2022/06/25 07:48:35;;;;;;;3.70;2.55;;;20.10;99.90;;;;;;4999862;28;20541;-80
2022/06/25 07:53:45;;;;;;;6.47;2.70;;;20.10;99.90;;;;;;4999392;28;20834;-79
2022/06/25 07:56:10;;;;;;;7.53;2.72;;;20.10;99.90;;;;;;5000422;28;20058;-79
2022/06/25 07:58:36;;;;;;;3.15;2.60;;;20.10;99.90;;;;;;5000128;28;20034;-80
2022/06/25 08:01:02;;;;;;;4.00;2.28;;;20.10;99.90;;;;;;4999001;28;20107;-79
2022/06/25 08:03:27;;;;;;;4.90;2.70;;;20.20;99.90;;;;;;4999402;28;20523;-79
2022/06/25 08:05:53;;;;;;;2.72;2.20;;;20.20;99.90;;;;;;4995924;28;20049;-80
2022/06/25 08:08:19;;;;;;;4.47;2.45;;;20.30;99.90;;;;;;4997772;28;20500;-79
2022/06/25 08:10:45;;;;;;;3.67;2.60;;;20.30;99.90;;;;;;4997840;28;20037;-80
2022/06/25 08:13:10;;;;;;;2.95;2.53;;;20.30;99.90;;;;;;4982235;28;20279;-79
2022/06/25 08:15:36;;;;;;;2.58;1.90;;;20.30;99.90;;;;;;4997717;28;20042;-80
2022/06/25 08:18:02;;;;;;;3.70;2.22;;;20.40;99.90;;;;;;4995929;28;20045;-79
2022/06/25 08:20:28;;;;;;;6.18;1.92;;;20.40;99.90;;;;;;4996152;28;20037;-79
2022/06/25 08:22:54;;;;;;;4.22;2.58;;;20.40;99.90;;;;;;4995245;28;20038;-79
2022/06/25 08:25:19;;;;;;;3.33;2.45;;;20.40;99.90;;;;;;4980454;28;20041;-79
2022/06/25 08:27:50;;;;;;;2.58;2.38;;;20.50;99.90;;;;;;4979932;28;20412;-80
2022/06/25 08:30:17;;;;;;;2.58;1.98;;;20.50;99.90;;;;;;4980095;28;20155;-79
2022/06/25 08:32:43;;;;;;;4.25;2.42;;;20.40;99.90;;;;;;4980963;28;20034;-79
2022/06/25 08:35:08;;;;;;;3.38;2.65;;;20.50;99.90;;;;;;4998598;28;20045;-79
2022/06/25 08:37:44;;;;;;;2.72;2.22;;;20.50;99.90;;;;;;4995052;28;20181;-79
2022/06/25 08:40:10;;;;;;;5.03;2.42;;;20.50;99.90;;;;;;4989472;28;20057;-79
2022/06/25 08:42:36;;;;;;;4.70;2.60;;;20.50;99.90;;;;;;4993472;28;20092;-79
2022/06/25 08:45:03;;;;;;;2.38;2.17;;;20.60;99.90;;;;;;4998668;28;20057;-79
2022/06/25 08:47:29;;;;;;;3.08;2.20;;;20.60;99.90;;;;;;4998472;28;20506;-79
2022/06/25 08:49:55;;;;;;;6.78;3.28;;;20.70;99.90;;;;;;4995203;28;20077;-79
2022/06/25 08:52:22;;;;;;;2.47;2.28;;;20.70;99.90;;;;;;4997420;28;20084;-79
2022/06/25 08:54:48;;;;;;;2.97;2.65;;;20.70;99.90;;;;;;4997819;28;20042;-79
2022/06/25 08:57:14;;;;;;;4.68;2.60;;;20.70;99.90;;;;;;4999357;28;20329;-79
2022/06/25 08:59:41;;;;;;;2.53;2.33;;;20.70;99.90;;;;;;4995737;28;20049;-79
2022/06/25 09:02:06;;;;;;;3.53;2.65;;;20.70;99.90;;;;;;4998198;28;20074;-79
2022/06/25 09:04:32;;;;;;;3.22;2.92;;;20.80;99.90;;;;;;4998412;28;20088;-79
2022/06/25 09:07:14;;;;;;;2.70;2.28;;;20.80;99.90;;;;;;4993182;28;20046;-80
2022/06/25 09:09:45;;;;;;;3.00;2.30;;;20.80;99.90;;;;;;5014468;28;20053;-79
2022/06/25 09:12:14;;;;;;;4.30;3.90;;;20.90;99.90;;;;;;4997324;28;20052;-80
2022/06/25 09:14:40;;;;;;;4.60;3.15;;;20.90;99.90;;;;;;4999922;28;20101;-80
2022/06/25 09:17:09;;;;;;;3.42;3.13;;;21.00;99.90;;;;;;4999996;28;20318;-80
2022/06/25 09:19:39;;;;;;;4.18;2.88;;;21.10;99.90;;;;;;5000042;28;20053;-79
2022/06/25 09:22:10;;;;;;;6.13;3.03;;;21.20;99.90;;;;;;5000229;28;20092;-79
2022/06/25 09:24:50;;;;;;;4.22;2.47;;;21.30;99.90;;;;;;4999431;28;20037;-79
2022/06/25 09:27:41;;;;;;;4.10;3.03;;;21.40;99.90;;;;;;4998242;28;20038;-80
2022/06/25 09:30:16;;;;;;;3.50;2.97;;;21.40;99.90;;;;;;4986776;28;20042;-79
2022/06/25 09:33:01;;;;;;;2.88;2.53;;;21.50;99.90;;;;;;5001462;28;20056;-80
2022/06/25 09:35:38;;;;;;;4.45;1.95;;;21.50;99.90;;;;;;5002821;28;20387;-79
2022/06/25 09:38:05;;;;;;;3.38;1.88;;;21.50;99.90;;;;;;5002389;28;20042;-80
2022/06/25 09:40:31;;;;;;;1.67;1.52;;;21.60;99.90;;;;;;5000566;28;20078;-79
2022/06/25 09:42:57;;;;;;;1.75;1.65;;;21.60;99.90;;;;;;4998403;28;20421;-75
2022/06/25 09:45:23;;;;;;;1.73;1.63;;;21.60;99.90;;;;;;5001247;28;20538;-77
2022/06/25 09:47:49;;;;;;;2.70;2.10;;;21.60;99.90;;;;;;5001577;28;20045;-75
2022/06/25 09:50:16;;;;;;;5.22;2.88;;;21.60;99.90;;;;;;5001377;28;20082;-75
2022/06/25 09:52:52;;;;;;;2.55;2.35;;;21.60;99.90;;;;;;5004982;28;20053;-75
2022/06/25 09:55:18;;;;;;;2.58;2.38;;;21.70;99.90;;;;;;4992080;28;20215;-76
2022/06/25 09:57:45;;;;;;;3.67;2.38;;;21.70;99.90;;;;;;4985421;28;20085;-78
2022/06/25 10:00:11;;;;;;;3.30;3.00;;;21.70;99.90;;;;;;5002554;28;20777;-76
2022/06/25 10:02:37;;;;;;;2.30;2.10;;;21.80;99.90;;;;;;5000902;28;20108;-76
2022/06/25 10:05:03;;;;;;;3.85;2.17;;;21.80;99.90;;;;;;5000911;28;20326;-75
2022/06/25 10:10:27;;;;;;;3.40;2.30;;;21.80;99.90;;;;;;4979382;28;20135;-80
2022/06/25 10:12:54;;;;;;;1.67;1.58;;;21.90;99.90;;;;;;5014120;28;20226;-80
2022/06/25 10:15:21;;;;;;;1.67;1.58;;;22.00;99.90;;;;;;5002146;28;20038;-80
2022/06/25 10:17:48;;;;;;;4.90;1.98;;;22.00;99.90;;;;;;4999139;28;20329;-79
2022/06/25 10:20:16;;;;;;;2.22;2.03;;;22.10;99.90;;;;;;5000208;28;20034;-79
2022/06/25 10:22:43;;;;;;;1.35;1.25;;;22.10;99.90;;;;;;5001196;28;20038;-83
2022/06/25 10:25:15;;;;;;;2.95;1.77;;;22.20;99.90;;;;;;5002813;28;20034;-80
2022/06/25 10:27:42;;;;;;;1.75;1.50;;;22.20;99.90;;;;;;5001523;28;20048;-80
2022/06/25 10:30:10;;;;;;;1.15;1.15;;;22.30;99.90;;;;;;5000391;28;20037;-79
2022/06/25 10:32:47;;;;;;;1.17;1.17;;;22.30;99.90;;;;;;4999673;28;20046;-78
2022/06/25 10:35:31;;;;;;;1.02;1.02;;;22.30;99.90;;;;;;5001382;28;20042;-80
2022/06/25 10:38:11;;;;;;;2.13;1.52;;;22.30;99.90;;;;;;4999195;28;20042;-79
2022/06/25 10:40:49;;;;;;;2.33;1.25;;;22.20;99.90;;;;;;5000675;28;20451;-79
2022/06/25 10:43:45;;;;;;;1.75;1.45;;;22.00;99.90;;;;;;4999352;28;20547;-80
2022/06/25 10:46:29;;;;;;;0.88;0.85;;;21.70;99.90;;;;;;5000019;28;20038;-79
2022/06/25 10:49:11;;;;;;;1.38;1.13;;;21.50;99.90;;;;;;4999047;28;20119;-78
2022/06/25 10:51:43;;;;;;;0.80;0.80;;;21.30;99.90;;;;;;4999947;28;20088;-79
2022/06/25 10:54:33;;;;;;;3.47;1.70;;;21.20;99.90;;;;;;4983699;28;20050;-79
2022/06/25 10:57:00;;;;;;;2.83;1.77;;;21.00;99.90;;;;;;4998781;28;20553;-79
2022/06/25 10:59:32;;;;;;;6.15;2.22;;;20.90;99.90;;;;;;5001305;28;20502;-79
2022/06/25 11:01:59;;;;;;;2.58;1.80;;;20.80;99.90;;;;;;5000583;28;20042;-79
2022/06/25 11:04:28;;;;;;;2.30;2.00;;;20.80;99.90;;;;;;5001053;28;20049;-79
2022/06/25 11:07:15;;;;;;;1.20;1.10;;;20.80;99.90;;;;;;4999294;28;20385;-80
2022/06/25 11:09:53;;;;;;;1.60;1.50;;;20.80;99.90;;;;;;5016085;28;20069;-79
2022/06/25 11:12:20;;;;;;;2.45;1.52;;;20.80;99.90;;;;;;4998726;28;20053;-79
2022/06/25 11:15:01;;;;;;;1.25;1.15;;;20.80;99.90;;;;;;5000736;28;20049;-79
2022/06/25 11:17:28;;;;;;;2.05;1.42;;;20.90;99.90;;;;;;4982814;28;20041;-79
2022/06/25 11:19:54;;;;;;;3.47;1.55;;;20.90;99.90;;;;;;5000053;28;20050;-79
2022/06/25 11:22:19;;;;;;;9.73;1.45;;;20.90;99.90;;;;;;4999376;28;20342;-79
2022/06/25 11:30:27;;;;;;;2.65;1.20;;;20.90;99.90;;;;;;5000674;28;20049;-79
2022/06/25 11:33:09;;;;;;;4.28;2.03;;;20.90;99.90;;;;;;5076705;27;20779;-77
2022/06/25 11:35:44;;;;;;;2.05;1.52;;;20.90;99.90;;;;;;5074279;28;20090;-77
2022/06/25 11:38:17;;;;;;;2.28;2.05;;;20.90;99.90;;;;;;5077132;28;20042;-77
2022/06/25 11:40:43;;;;;;;4.13;2.75;;;20.80;99.90;;;;;;5075775;28;20382;-77
2022/06/25 11:43:09;;;;;;;3.25;1.88;;;20.80;99.90;;;;;;5076760;28;20040;-76
2022/06/25 11:45:55;;;;;;;2.08;1.83;;;20.80;99.90;;;;;;5076239;28;20111;-77
2022/06/25 11:48:25;;;;;;;2.08;1.92;;;20.80;99.90;;;;;;5075321;28;20048;-77
2022/06/25 11:50:56;;;;;;;3.35;2.45;;;20.80;99.90;;;;;;5075030;28;20043;-78
2022/06/25 11:53:21;;;;;;;2.83;1.88;;;20.80;99.90;;;;;;5076015;28;20430;-75
2022/06/25 11:56:00;;;;;;;2.63;1.98;;;20.80;99.90;;;;;;5075972;28;20038;-78
2022/06/25 11:58:28;;;;;;;3.08;2.47;;;20.80;99.90;;;;;;5074557;28;20475;-77
2022/06/25 12:01:01;;;;;;;4.40;2.75;;;20.70;99.90;;;;;;5076002;28;20103;-78
2022/06/25 12:03:28;;;;;;;2.53;2.33;;;20.70;99.90;;;;;;5074671;28;20051;-78
2022/06/25 12:05:55;;;;;;;3.03;2.78;;;20.70;99.90;;;;;;5074775;28;20058;-77
2022/06/25 12:08:22;;;;;;;5.45;3.35;;;20.70;99.90;;;;;;5074018;28;20123;-78
2022/06/25 12:10:49;;;;;;;3.58;3.28;;;20.70;99.90;;;;;;5091368;28;20044;-78
2022/06/25 12:13:15;;;;;;;7.28;3.30;;;20.70;99.90;;;;;;5074324;28;20036;-78
2022/06/25 12:15:41;;;;;;;4.88;4.07;;;20.70;99.90;;;;;;5074233;28;20120;-77
2022/06/25 12:18:07;;;;;;;4.55;3.08;;;20.80;99.90;;;;;;5075971;28;20036;-77
2022/06/25 12:20:33;;;;;;;3.40;2.65;;;20.90;99.90;;;;;;5074728;28;20608;-77
2022/06/25 12:23:00;;;;;;;4.35;3.88;;;20.90;99.90;;;;;;5074325;28;20274;-78
2022/06/25 12:25:30;;;;;;;3.65;3.28;;;21.00;99.90;;;;;;5076118;28;20040;-78
2022/06/25 12:27:59;;;;;;;8.82;4.25;;;21.10;99.90;;;;;;5074920;28;20043;-78
2022/06/25 12:30:33;;;;;;;5.15;3.90;;;21.20;99.90;;;;;;5075276;28;20127;-78
2022/06/25 12:33:09;;;;;;;5.32;3.65;;;21.30;99.90;;;;;;5073155;28;20082;-78
2022/06/25 12:35:40;;;;;;;5.75;3.90;;;21.40;99.90;;;;;;5074429;28;20049;-78
2022/06/25 12:38:09;;;;;;;5.50;3.05;;;21.40;99.90;;;;;;5075105;28;20113;-77
2022/06/25 12:40:46;;;;;;;4.60;3.70;;;21.50;99.90;;;;;;5073744;28;20670;-78
2022/06/25 12:43:14;;;;;;;6.32;3.95;;;21.50;99.90;;;;;;5068111;28;20091;-77
2022/06/25 12:45:42;;;;;;;3.25;2.95;;;21.60;99.90;;;;;;5061954;28;20040;-78
2022/06/25 12:48:09;;;;;;;4.20;3.80;;;21.60;99.90;;;;;;5060624;28;20210;-78
2022/06/25 12:50:40;;;;;;;6.35;2.65;;;21.70;99.90;;;;;;5042859;28;20040;-77
2022/06/25 12:53:07;;;;;;;4.53;3.03;;;21.70;99.90;;;;;;5061468;28;20049;-78
2022/06/25 12:55:32;;;;;;;2.83;2.63;;;21.70;99.90;;;;;;5061353;28;20036;-78
2022/06/25 12:58:06;;;;;;;2.58;2.28;;;21.80;99.90;;;;;;5061460;28;20052;-78
2022/06/25 13:00:35;;;;;;;4.55;2.58;;;21.90;99.90;;;;;;5060365;28;20037;-78
2022/06/25 13:03:01;;;;;;;3.00;2.58;;;21.90;99.90;;;;;;5059900;28;20090;-78
2022/06/25 13:05:27;;;;;;;3.00;2.65;;;22.00;99.90;;;;;;5059452;28;20503;-78
2022/06/25 13:07:53;;;;;;;3.63;2.85;;;22.10;99.90;;;;;;5060924;28;20052;-78
2022/06/25 13:10:19;;;;;;;2.25;2.05;;;22.10;99.90;;;;;;5061516;28;20067;-77